Platinum Airport
PAPM : now visible

Airfield :











YOU CAN JOIN US ON...

 
LOGIN :

Register | Disclaimer

   EN    FR    IT 

 









Legend :    VFR   Marginal VFR   IFR   Intensive IFR   Very Intensive IFR
Visi :
Ceiling :
>= 8 km
>= 3000ft
5 to 8 km
1000 to 3000 ft
1500m to 5 km
500 to 1000 ft
800 to 1500m
200 to 500 ft
< 800m
< 200 ft
Symbols :   Thunderstorms  Fog  Heavy snow  Heavy precipitations  Wind > 20 kt






- Airport Elevation : 15 ft
- IATA code : PTU


PAPM - Platinum

CURRENT METAR :
  • 010804Z AUTO 15015G22KT 10SM FEW010 BKN042 OVC070 14/13 A2988 RMK AO2

EXPIRED METARs :
  • 010756Z AUTO 16014G18KT 10SM FEW010 BKN029 OVC040 14/13 A2988 RMK AO2 RAE07 SLP122 P0001 T01440133
  • 010743Z AUTO 16013KT 10SM SCT010 BKN026 OVC031 14/13 A2988 RMK AO2 RAE07 P0001
  • 010656Z AUTO 16012KT 10SM -RA OVC010 14/13 A2988 RMK AO2 RAE07B24 SLP121 P0000 T01440133
  • 010556Z AUTO 17014G20KT 5SM -RA BR BKN010 BKN015 OVC021 14/13 A2988 RMK AO2 SLP121 P0001 60005 T01390133 10144 20128 55002

TAF N/A
PAZA FIR / North America



MET'MAP, your aeronautical weather chart ! - Copyright ORBIFLY December 2007 - Disclaimer

ORBIFLY MET'MAP TEAM :

Programming & Development : Alexandra Zaïnal
Concept & original design : Baudouin d'Aumeries
Assistance for programming : Marc-Olivier Méhu
Technical & hardware support : Manuel Goepfert

Contact : metmap@orbifly.com




SOURCES & CREDITS :

   NOAA       Earth
Advisory